This is the latest recevied weather packets stored in our database for station/object G4MHJ-1. If no packets are shown the sender has not sent any weather packets the latest 10 day(s).
| Time | Temp. | Humidity | Pressure | Rain* | Wind** | Luminosity | Snow |
|---|---|---|---|---|---|---|---|
| 1777684802 | 12.78° C | 83% | 1018.3 hPa | 0 mm | - | 0 W/m² | - |
| 1777677602 | 15.56° C | 77% | 1019.2 hPa | 0 mm | - | 0 W/m² | - |
| 1777674003 | 16.67° C | 75% | 1019.2 hPa | 0 mm | - | 0 W/m² | - |
| 1777670402 | 17.78° C | 71% | 1018.9 hPa | 0 mm | - | 0 W/m² | - |
| 1777666803 | 18.33° C | 70% | 1019 hPa | 0 mm | - | 0 W/m² | - |
| 1777663202 | 19.44° C | 69% | 1018.5 hPa | 0 mm | - | 0 W/m² | - |
| 1777659601 | 20.56° C | 64% | 1018.4 hPa | 0 mm | - | 39 W/m² | - |
| 1777652406 | 23.89° C | 59% | 1018.1 hPa | 0 mm | - | 455 W/m² | - |
| 1777648802 | 24.44° C | 52% | 1018.4 hPa | 0 mm | - | 584 W/m² | - |
| 1777645202 | 25° C | 43% | 1018.8 hPa | 0 mm | - | 700 W/m² | - |
| 1777641607 | 24.44° C | 41% | 1019.1 hPa | 0 mm | - | 779 W/m² | - |
| 1777638007 | 23.33° C | 39% | 1019.3 hPa | 0 mm | - | 809 W/m² | - |
| 1777634408 | 21.67° C | 44% | 1019.8 hPa | 0 mm | - | 100 W/m² | - |
| 1777630806 | 20° C | 46% | 1020.2 hPa | 0 mm | - | 207 W/m² | - |
| 1777627207 | 17.78° C | 49% | 1020.7 hPa | 0 mm | - | 72 W/m² | - |
| 1777623605 | 15.56° C | 54% | 1020.9 hPa | 0 mm | - | 54 W/m² | - |
| 1777620007 | 13.33° C | 62% | 1020.7 hPa | 0 mm | - | 47 W/m² | - |
| 1777616403 | 10.56° C | 73% | 1020.5 hPa | 0 mm | - | 153 W/m² | - |
| 1777612805 | 8.33° C | 78% | 1020.4 hPa | 0 mm | - | 18 W/m² | - |
| 1777609201 | 8.33° C | 78% | 1020.2 hPa | 0 mm | - | 0 W/m² | - |
| 1777605601 | 8.89° C | 77% | 1020.3 hPa | 0 mm | - | 0 W/m² | - |
| 1777602001 | 10° C | 76% | 1020.5 hPa | 0 mm | - | 0 W/m² | - |
| 1777598401 | 10° C | 81% | 1020.9 hPa | 0 mm | - | 0 W/m² | - |
| 1777594800 | 10.56° C | 84% | 1021.1 hPa | 0 mm | - | 0 W/m² | - |
| 1777591199 | 10.56° C | 85% | 1021 hPa | 0 mm | - | 0 W/m² | - |
* Rain latest hour (hover to see other rain measurements)
** Current wind speed in m/s (hover to see current wind gust speed)